KASE

Aspen-Pitkin Co / Sardy Field Airport

Aspen, Colorado, USA
METAR KASE 210414Z AUTO 00000KT 5SM -SN BR OVC025 01/M01 A2965 RMK AO2 P0000 T00061006
Observed Flight Rules
Jan-21 @ 04:14 UTC (39 minutes ago) Marginal Visual Flight Rules
Wind Visibility Clouds Conditions
Calm 5 miles
  • Overcast at 2,500' AGL
  • Light Snow
  • Mist
Temperatures Readings Precipitation
Current 1°C / 34°F
Dewpoint -1°C / 30°F
Humidity 87%
Altimeter 29.65" Hg
Pressure 1004 hPa
Elevation 2354
Current Rain 0.005
METAR KASE 210414Z AUTO 00000KT 5SM -SN BR OVC025 01/M01 A2965 RMK AO2 P0000 T00061006
Observed Flight Rules
Jan-21 @ 04:14 UTC
(39 minutes ago)
MVFR
Wind Visibility
Calm 5 miles
Clouds
  • Overcast at 2,500' AGL
Conditions
  • Light Snow
  • Mist
Temperature Dewpoint
1°C / 34°F -1°C / 30°F
Humidity Altimeter Pressure
87% 29.65" Hg 1004 hPa
Current Rain
0.005